Time;durP1;ratioP1;P1;durP2;ratioP2;P2;SDS_P1;SDS_P2;PMS_P1;PMS_P2;Temp;Humidity;BMP_temperature;BMP_pressure;BME280_temperature;BME280_humidity;BME280_pressure;Samples;Min_cycle;Max_cycle;Signal;HPM_P1;HPM_P2
2023/01/14 00:00:36;;;;;;;2.28;0.63;;;;;;;16.92;56.72;97122.13;10325568;28;20026;-27
2023/01/14 00:05:37;;;;;;;4.03;1.15;;;;;;;16.95;57.53;97132.25;10326627;28;20035;-27
2023/01/14 00:10:37;;;;;;;3.13;1.23;;;;;;;16.94;56.49;97128.03;10325233;28;20048;-27
2023/01/14 00:15:37;;;;;;;1.77;0.90;;;;;;;16.92;56.26;97130.53;10325473;28;20034;-27
2023/01/14 00:20:38;;;;;;;2.07;0.80;;;;;;;16.89;56.19;97117.88;10325896;28;20483;-26
2023/01/14 00:25:38;;;;;;;3.20;1.20;;;;;;;16.91;56.97;97133.91;10325396;28;20365;-27
2023/01/14 00:30:41;;;;;;;4.57;1.00;;;;;;;16.91;55.80;97133.06;10324897;28;20026;-27
2023/01/14 00:35:41;;;;;;;4.15;1.23;;;;;;;16.91;56.69;97135.59;10320418;28;20069;-27
2023/01/14 00:40:41;;;;;;;3.00;1.00;;;;;;;16.91;57.14;97130.53;10325073;28;20122;-27
2023/01/14 00:45:42;;;;;;;4.60;2.07;;;;;;;16.90;56.86;97133.91;10324471;28;20050;-27
2023/01/14 00:50:42;;;;;;;2.90;1.27;;;;;;;16.91;56.84;97133.06;10326440;28;20057;-27
2023/01/14 00:55:42;;;;;;;3.20;1.10;;;;;;;16.95;56.49;97155.88;10325318;28;20038;-27
2023/01/14 01:00:44;;;;;;;4.60;1.30;;;;;;;16.94;58.23;97153.31;10323794;28;20035;-27
2023/01/14 01:05:45;;;;;;;3.85;1.08;;;;;;;16.96;57.19;97147.47;10306770;28;20065;-27
2023/01/14 01:10:48;;;;;;;3.33;1.08;;;;;;;16.93;56.74;97149.09;10325649;28;20065;-27
2023/01/14 01:15:49;;;;;;;3.22;1.58;;;;;;;16.93;56.79;97152.50;10316059;28;20038;-26
2023/01/14 01:20:50;;;;;;;3.35;0.95;;;;;;;16.90;57.33;97154.13;10307500;28;20037;-27
2023/01/14 01:25:58;;;;;;;2.93;1.10;;;;;;;16.90;57.20;97164.25;10327630;28;20045;-27
2023/01/14 01:31:05;;;;;;;5.53;1.35;;;;;;;16.89;56.86;97145.69;10327475;28;20054;-27
2023/01/14 01:36:17;;;;;;;4.93;1.40;;;;;;;16.91;56.52;97148.25;10320754;28;20026;-27
2023/01/14 01:41:23;;;;;;;3.20;1.20;;;;;;;16.87;57.20;97154.06;10323616;28;20034;-26
2023/01/14 01:46:24;;;;;;;2.45;1.10;;;;;;;16.86;56.95;97155.78;10329940;28;20426;-26
2023/01/14 01:51:28;;;;;;;3.30;1.02;;;;;;;16.84;56.72;97169.22;10329900;28;20054;-26
2023/01/14 01:56:33;;;;;;;4.65;1.15;;;;;;;16.87;56.79;97167.59;10330036;28;20038;-27
2023/01/14 02:01:34;;;;;;;4.20;1.63;;;;;;;16.88;56.39;97168.41;10317372;28;20527;-27
2023/01/14 02:06:35;;;;;;;2.28;1.35;;;;;;;16.89;56.43;97154.97;10330875;28;20065;-27
2023/01/14 02:11:57;;;;;;;2.83;1.00;;;;;;;16.92;56.96;97142.34;10330550;28;20118;-27
2023/01/14 02:17:15;;;;;;;3.63;1.13;;;;;;;16.92;56.97;97135.59;10324075;28;20300;-27
2023/01/14 02:22:34;;;;;;;4.57;1.10;;;;;;;16.93;55.98;97146.56;10307594;28;20030;-27
2023/01/14 02:27:41;;;;;;;2.72;0.90;;;;;;;16.89;56.02;97138.09;10310433;28;20038;-27
2023/01/14 02:33:16;;;;;;;2.87;1.07;;;;;;;16.89;56.53;97144.84;10316381;28;20026;-27
2023/01/14 02:38:43;;;;;;;4.28;0.95;;;;;;;16.87;56.44;97131.31;10312092;28;20044;-27
2023/01/14 02:49:19;;;;;;;2.45;1.30;;;;;;;16.85;56.34;97130.44;10327413;28;20039;-26
2023/01/14 02:54:20;;;;;;;3.15;0.98;;;;;;;16.85;56.78;97117.81;10311368;28;20031;-27
2023/01/14 02:59:34;;;;;;;4.90;1.02;;;;;;;16.83;56.39;97119.47;10310703;28;20449;-27
2023/01/14 03:04:58;;;;;;;4.78;1.25;;;;;;;16.85;56.46;97117.81;10306932;28;20045;-27
2023/01/14 03:10:43;;;;;;;4.22;1.38;;;;;;;16.85;56.37;97102.63;10328323;28;20030;-27
2023/01/14 03:15:58;;;;;;;6.35;1.10;;;;;;;16.81;56.66;97106.81;10300488;28;20109;-27
2023/01/14 03:21:03;;;;;;;4.70;1.10;;;;;;;16.89;56.04;97096.81;10325485;28;20060;-27
2023/01/14 03:26:08;;;;;;;3.58;1.27;;;;;;;16.90;57.47;97075.75;10312143;28;20490;-27
2023/01/14 03:31:13;;;;;;;4.35;1.00;;;;;;;16.92;55.73;97079.13;10311712;28;20042;-26
2023/01/14 03:36:19;;;;;;;3.97;0.85;;;;;;;16.90;55.88;97075.75;10318608;28;20042;-26
2023/01/14 03:46:42;;;;;;;7.00;1.00;;;;;;;16.88;56.19;97063.06;10332111;28;20063;-27
2023/01/14 03:52:00;;;;;;;2.95;1.60;;;;;;;16.90;56.30;97052.97;10332404;28;20165;-27
2023/01/14 03:57:26;;;;;;;2.47;1.00;;;;;;;16.87;56.32;97040.28;10333500;28;20489;-27
2023/01/14 04:02:29;;;;;;;2.85;1.10;;;;;;;16.84;56.10;97040.25;10330369;28;20446;-27
2023/01/14 04:07:29;;;;;;;3.47;1.00;;;;;;;16.83;56.44;97036.03;10333427;28;20483;-27
2023/01/14 04:12:30;;;;;;;4.47;1.10;;;;;;;16.84;56.45;97030.97;10331587;28;20034;-27
2023/01/14 04:17:31;;;;;;;4.07;1.47;;;;;;;16.83;56.22;97033.50;10333076;28;20769;-27
2023/01/14 04:22:31;;;;;;;3.35;1.50;;;;;;;16.81;56.25;97020.00;10333098;28;20034;-27
2023/01/14 04:27:31;;;;;;;2.40;0.90;;;;;;;16.83;56.15;97018.34;10329535;28;20038;-27
2023/01/14 04:32:32;;;;;;;4.03;1.00;;;;;;;16.84;56.33;97005.69;10336466;28;20105;-26
2023/01/14 04:37:32;;;;;;;4.22;1.40;;;;;;;16.88;56.68;97002.38;10330120;28;20520;-27
2023/01/14 04:42:33;;;;;;;3.75;1.42;;;;;;;16.88;57.17;96999.84;10333837;28;20475;-27
2023/01/14 04:47:33;;;;;;;3.20;0.90;;;;;;;16.88;55.96;96991.41;10334788;28;20038;-27
2023/01/14 04:52:33;;;;;;;3.03;1.00;;;;;;;16.83;56.25;96980.41;10340496;28;20489;-27
2023/01/14 04:57:34;;;;;;;5.33;1.50;;;;;;;16.86;56.07;96991.41;10339834;28;20038;-26
2023/01/14 05:02:34;;;;;;;3.00;0.90;;;;;;;16.83;56.30;96982.94;10338733;28;20046;-27
2023/01/14 05:07:34;;;;;;;4.23;1.03;;;;;;;16.84;56.43;96979.56;10339857;28;20781;-27
2023/01/14 05:12:35;;;;;;;2.87;1.07;;;;;;;16.81;55.94;96977.03;10338547;28;20726;-28
2023/01/14 05:17:35;;;;;;;5.45;1.58;;;;;;;16.83;57.10;96977.88;10338593;28;20039;-27
2023/01/14 05:22:36;;;;;;;6.53;1.38;;;;;;;16.81;56.52;96975.31;10339217;28;20562;-27
2023/01/14 05:27:36;;;;;;;2.07;1.20;;;;;;;16.78;56.03;96961.78;10335119;28;20107;-27
2023/01/14 05:32:37;;;;;;;3.57;0.97;;;;;;;16.81;56.67;96970.25;10335461;28;20031;-27
2023/01/14 05:37:37;;;;;;;5.30;1.33;;;;;;;16.82;56.49;96953.44;10330625;28;20035;-27
2023/01/14 05:47:56;;;;;;;4.68;1.05;;;;;;;16.77;56.72;96933.16;10331430;28;20561;-27
2023/01/14 05:52:57;;;;;;;1.88;0.98;;;;;;;16.87;57.21;96937.47;10331113;28;20038;-27
2023/01/14 05:58:01;;;;;;;4.32;0.90;;;;;;;16.90;56.12;96939.19;10329294;28;20049;-27
2023/01/14 06:08:21;;;;;;;2.30;1.10;;;;;;;16.80;56.99;96935.69;10330203;28;20354;-27
2023/01/14 06:13:24;;;;;;;2.90;1.13;;;;;;;16.84;56.50;96934.06;10329289;28;20034;-27
2023/01/14 06:18:24;;;;;;;2.20;0.77;;;;;;;16.83;55.35;96917.19;10330533;28;20038;-27
2023/01/14 06:23:25;;;;;;;2.80;1.00;;;;;;;16.93;55.10;96924.03;10329215;28;20037;-27
2023/01/14 06:28:27;;;;;;;2.93;0.93;;;;;;;16.94;55.50;96920.66;10328910;28;20029;-27
2023/01/14 06:33:27;;;;;;;2.72;0.98;;;;;;;16.98;54.83;96917.34;10330775;28;20037;-27
2023/01/14 06:38:27;;;;;;;2.93;0.80;;;;;;;16.96;55.24;96919.84;10329315;28;20034;-27
2023/01/14 06:43:28;;;;;;;2.53;1.00;;;;;;;16.96;55.93;96913.94;10328102;28;20057;-27
2023/01/14 06:48:29;;;;;;;2.50;1.30;;;;;;;16.98;55.40;96907.22;10328920;28;20284;-27
2023/01/14 06:53:29;;;;;;;4.18;1.00;;;;;;;16.99;54.78;96893.75;10326572;28;20034;-27
2023/01/14 06:58:30;;;;;;;2.73;1.00;;;;;;;17.02;56.11;96888.69;10326905;28;20045;-27
2023/01/14 07:03:30;;;;;;;3.58;1.10;;;;;;;17.04;55.35;96882.81;10328389;28;20088;-27
2023/01/14 07:08:30;;;;;;;3.00;0.80;;;;;;;17.03;54.26;96873.53;10328205;28;20022;-27
2023/01/14 07:13:31;;;;;;;3.33;0.80;;;;;;;17.04;54.96;96884.50;10326045;28;20289;-27
2023/01/14 07:18:32;;;;;;;4.18;1.20;;;;;;;17.03;54.24;96880.28;10327887;28;20038;-26
2023/01/14 07:23:32;;;;;;;4.13;0.83;;;;;;;17.03;54.59;96882.78;10325522;28;20038;-26
2023/01/14 07:28:35;;;;;;;2.17;0.90;;;;;;;17.04;54.06;96881.97;10326019;28;20026;-26
2023/01/14 07:33:35;;;;;;;1.55;0.70;;;;;;;17.00;53.34;96877.72;10327405;28;20038;-27
2023/01/14 07:38:36;;;;;;;1.05;0.50;;;;;;;16.99;53.51;96868.44;10319271;28;20034;-27
2023/01/14 07:43:36;;;;;;;6.00;1.10;;;;;;;16.97;53.92;96873.47;10325678;28;20034;-27
2023/01/14 07:48:37;;;;;;;2.45;0.70;;;;;;;16.93;53.91;96858.28;10327082;28;20027;-27
2023/01/14 07:53:38;;;;;;;1.92;0.60;;;;;;;16.88;53.13;96852.31;10326137;28;20032;-27
2023/01/14 07:58:38;;;;;;;1.55;0.70;;;;;;;16.92;52.95;96841.41;10325440;28;20031;-27
2023/01/14 08:03:39;;;;;;;2.60;0.83;;;;;;;16.94;52.70;96837.19;10326736;28;20035;-27
2023/01/14 08:08:39;;;;;;;9.43;0.83;;;;;;;16.75;54.51;96822.72;10325613;28;20089;-27
2023/01/14 08:13:39;;;;;;;3.70;0.67;;;;;;;16.89;52.91;96821.16;10324776;28;20037;-27
2023/01/14 08:18:40;;;;;;;2.57;0.80;;;;;;;16.92;52.87;96816.13;10326485;28;20238;-27
2023/01/14 08:23:40;;;;;;;5.83;0.90;;;;;;;16.97;52.92;96809.41;10334720;28;20113;-27
2023/01/14 08:28:41;;;;;;;2.57;1.10;;;;;;;16.95;53.98;96795.91;10334011;28;20490;-27
2023/01/14 08:33:43;;;;;;;2.08;1.20;;;;;;;16.93;54.03;96773.16;10337673;28;20034;-27
2023/01/14 08:38:46;;;;;;;3.40;1.10;;;;;;;16.89;54.30;96785.75;10331820;28;20036;-27
2023/01/14 08:43:48;;;;;;;2.28;1.90;;;;;;;16.89;54.43;96790.81;10338546;28;20038;-27
2023/01/14 08:48:49;;;;;;;3.10;1.63;;;;;;;16.86;54.40;96778.13;10339128;28;20384;-27
2023/01/14 08:53:49;;;;;;;4.70;2.40;;;;;;;16.84;55.48;96777.28;10337896;28;20038;-27
2023/01/14 08:58:52;;;;;;;3.50;1.77;;;;;;;16.85;55.57;96774.78;10335815;28;20041;-27
2023/01/14 09:03:57;;;;;;;6.20;2.63;;;;;;;16.88;55.64;96784.91;10333497;28;20289;-27
2023/01/14 09:19:55;;;;;;;13.98;2.70;;;;;;;16.84;55.84;96762.94;10334063;28;20034;-27
2023/01/14 09:24:56;;;;;;;3.15;1.90;;;;;;;16.77;53.52;96747.72;10330529;28;20034;-27
2023/01/14 09:29:57;;;;;;;7.00;2.83;;;;;;;16.93;55.04;96752.94;10331271;28;20030;-27
2023/01/14 09:34:57;;;;;;;11.38;2.70;;;;;;;16.92;54.02;96735.19;10321754;28;20038;-27
2023/01/14 09:39:57;;;;;;;8.10;2.57;;;;;;;16.93;53.26;96727.63;10327948;28;20125;-28
2023/01/14 09:45:26;;;;;;;5.93;2.87;;;;;;;16.95;53.29;96720.03;10329347;28;20414;-27
2023/01/14 09:50:27;;;;;;;5.22;2.13;;;;;;;16.97;53.63;96731.00;10325602;28;20041;-27
2023/01/14 09:55:45;;;;;;;3.13;1.88;;;;;;;16.92;53.61;96730.16;10320082;28;20042;-27
2023/01/14 10:01:07;;;;;;;3.70;2.15;;;;;;;17.03;53.19;96731.03;10326506;28;20135;-27
2023/01/14 10:06:13;;;;;;;7.47;2.80;;;;;;;16.91;53.20;96710.75;10331448;28;20466;-27
2023/01/14 10:11:14;;;;;;;7.13;3.05;;;;;;;17.08;52.51;96716.75;10330309;28;20082;-27
2023/01/14 10:16:25;;;;;;;9.77;4.68;;;;;;;17.06;54.63;96718.44;10329774;28;20229;-27
2023/01/14 10:21:34;;;;;;;8.45;3.78;;;;;;;17.07;51.19;96715.88;10329975;28;20818;-27
2023/01/14 10:26:35;;;;;;;10.13;3.53;;;;;;;16.99;49.86;96699.00;10328481;28;20038;-27
2023/01/14 10:31:37;;;;;;;10.83;3.40;;;;;;;16.98;49.26;96667.78;10329633;28;20487;-26
2023/01/14 10:36:37;;;;;;;4.28;2.40;;;;;;;17.02;50.26;96651.81;10329581;28;20665;-26
2023/01/14 10:41:50;;;;;;;6.78;3.40;;;;;;;17.06;50.98;96622.31;10329175;28;20038;-27
2023/01/14 10:46:57;;;;;;;8.43;4.30;;;;;;;17.09;51.08;96619.78;10328539;28;20034;-26
2023/01/14 10:51:57;;;;;;;;;;;;;;;17.01;52.81;96613.84;10330249;28;20482;-26
2023/01/14 10:57:15;;;;;;;10.40;2.53;;;;;;;16.92;50.99;96639.94;10328102;28;19918;-27
2023/01/14 11:02:37;;;;;;;17.13;3.08;;;;;;;16.95;53.28;96617.22;10323535;28;20038;-27
2023/01/14 11:07:41;;;;;;;8.55;3.13;;;;;;;16.92;51.24;96607.06;10325422;28;20105;-27
2023/01/14 11:12:42;;;;;;;6.10;2.50;;;;;;;16.99;51.23;96603.72;10325384;28;20034;-27
2023/01/14 11:17:42;;;;;;;3.58;1.95;;;;;;;17.02;50.75;96592.78;10327785;28;20041;-27
2023/01/14 11:22:42;;;;;;;6.27;1.93;;;;;;;17.00;52.59;96581.81;10326509;28;20555;-27
2023/01/14 11:27:48;;;;;;;4.95;1.80;;;;;;;17.02;52.23;96559.91;10326406;28;20513;-26
2023/01/14 11:32:51;;;;;;;5.18;2.30;;;;;;;17.07;53.47;96545.59;10327914;28;20046;-27
2023/01/14 11:37:54;;;;;;;6.45;2.70;;;;;;;17.10;53.09;96508.53;10326833;28;20038;-27
2023/01/14 11:43:09;;;;;;;7.05;2.03;;;;;;;17.10;52.51;96484.91;10327086;28;20569;-27
2023/01/14 11:48:23;;;;;;;5.93;1.90;;;;;;;17.16;53.48;96470.56;10327156;28;20076;-27
2023/01/14 11:53:26;;;;;;;4.65;1.92;;;;;;;17.22;53.15;96442.75;10320728;28;20041;-27
2023/01/14 11:58:29;;;;;;;4.25;1.55;;;;;;;17.35;52.74;96449.50;10321545;28;20550;-27
2023/01/14 12:03:49;;;;;;;4.75;1.85;;;;;;;17.40;52.20;96447.00;10321581;28;20038;-27
2023/01/14 12:08:59;;;;;;;4.97;1.80;;;;;;;17.41;52.71;96431.00;10319662;28;20501;-27
2023/01/14 12:19:37;;;;;;;5.28;2.28;;;;;;;17.45;53.09;96402.28;10318609;28;20065;-27
2023/01/14 12:24:58;;;;;;;5.43;1.95;;;;;;;17.46;52.55;96401.44;10325685;28;20034;-27
2023/01/14 12:29:59;;;;;;;3.97;2.40;;;;;;;17.48;53.29;96387.13;10320636;28;20054;-27
2023/01/14 12:35:01;;;;;;;3.95;1.90;;;;;;;17.57;51.97;96393.00;10325666;28;20437;-26
2023/01/14 12:45:47;;;;;;;5.82;1.58;;;;;;;17.56;52.38;96372.75;10323340;28;20034;-27
2023/01/14 12:51:17;;;;;;;2.95;1.73;;;;;;;17.54;53.04;96349.13;10325825;28;20532;-26
2023/01/14 12:56:25;;;;;;;4.93;1.63;;;;;;;17.51;52.47;96344.91;10321294;28;20046;-27
2023/01/14 13:01:31;;;;;;;6.07;1.60;;;;;;;17.40;52.73;96325.56;10324504;28;20030;-27
2023/01/14 13:06:35;;;;;;;4.22;1.40;;;;;;;17.29;54.05;96327.22;10324631;28;20550;-27
2023/01/14 13:11:43;;;;;;;2.05;1.27;;;;;;;17.20;53.88;96323.03;10331884;28;20169;-27
2023/01/14 13:16:44;;;;;;;2.90;1.13;;;;;;;17.25;51.83;96323.00;10328804;28;20083;-27
2023/01/14 13:22:04;;;;;;;2.05;1.20;;;;;;;17.24;51.35;96316.28;10331584;28;20400;-26
2023/01/14 13:27:36;;;;;;;2.58;1.17;;;;;;;17.22;51.85;96326.38;10330886;28;20269;-27
2023/01/14 13:33:00;;;;;;;1.63;1.10;;;;;;;17.23;49.38;96328.06;10309769;28;20141;-27
2023/01/14 13:38:04;;;;;;;2.80;1.42;;;;;;;17.16;49.18;96311.19;10328918;28;20121;-27
2023/01/14 13:43:15;;;;;;;1.98;1.05;;;;;;;17.20;49.80;96296.88;10329739;28;20545;-27
2023/01/14 13:48:22;;;;;;;2.08;1.00;;;;;;;17.10;52.69;96259.78;10330825;28;20483;-27
2023/01/14 13:53:27;;;;;;;2.50;1.38;;;;;;;17.18;51.18;96280.84;10324577;28;20044;-27
2023/01/14 13:58:36;;;;;;;2.03;1.70;;;;;;;17.21;51.08;96270.72;10328524;28;20038;-27
2023/01/14 14:03:39;;;;;;;9.05;1.98;;;;;;;17.22;49.90;96269.88;10330850;28;20037;-27
2023/01/14 14:08:39;;;;;;;1.85;0.90;;;;;;;17.18;51.15;96253.03;10329437;28;20023;-27
2023/01/14 14:14:03;;;;;;;4.70;2.00;;;;;;;17.20;50.45;96237.00;10328184;28;20026;-26
2023/01/14 14:19:14;;;;;;;4.72;1.17;;;;;;;17.21;49.07;96210.00;10328521;28;20044;-27
2023/01/14 14:24:51;;;;;;;3.75;1.25;;;;;;;17.25;50.69;96214.22;10329636;28;20057;-27
2023/01/14 14:29:55;;;;;;;9.93;1.90;;;;;;;17.27;51.52;96237.81;10326040;28;20073;-28
2023/01/14 14:35:25;;;;;;;3.58;1.55;;;;;;;17.28;50.60;96219.28;10330321;28;20042;-27
2023/01/14 14:40:28;;;;;;;5.78;1.30;;;;;;;17.26;50.97;96211.69;10316174;28;20046;-27
2023/01/14 14:45:35;;;;;;;7.03;1.42;;;;;;;17.17;51.83;96211.72;10320297;28;20058;-27
2023/01/14 14:50:39;;;;;;;3.38;1.23;;;;;;;17.20;51.06;96200.75;10329051;28;20030;-27
2023/01/14 14:55:53;;;;;;;6.75;1.25;;;;;;;17.23;51.80;96200.75;10328022;28;20034;-27
2023/01/14 15:01:02;;;;;;;4.78;1.48;;;;;;;17.21;51.30;96200.75;10327106;28;20058;-27
2023/01/14 15:06:10;;;;;;;4.45;1.20;;;;;;;17.19;52.23;96209.19;10320409;28;20092;-26
2023/01/14 15:11:15;;;;;;;3.28;1.00;;;;;;;17.25;50.24;96229.41;10328267;28;20034;-27
2023/01/14 15:16:18;;;;;;;3.40;1.10;;;;;;;17.27;50.64;96235.31;10326520;28;20038;-27
2023/01/14 15:21:22;;;;;;;8.02;1.30;;;;;;;17.24;51.41;96251.31;10326462;28;20518;-27
2023/01/14 15:26:29;;;;;;;2.70;1.00;;;;;;;17.22;53.51;96242.03;10327621;28;20109;-27
2023/01/14 15:31:32;;;;;;;;;;;;;;;17.15;54.71;96248.81;10324973;28;20023;-27
2023/01/14 15:36:36;;;;;;;3.22;0.95;;;;;;;17.09;54.49;96253.06;10327269;28;19914;-27
2023/01/14 15:41:38;;;;;;;6.15;1.15;;;;;;;17.15;53.87;96230.28;10325964;28;20214;-27
2023/01/14 15:46:40;;;;;;;8.77;2.05;;;;;;;17.14;51.64;96248.84;10321561;28;20027;-27
2023/01/14 15:51:42;;;;;;;2.85;0.98;;;;;;;17.08;52.92;96256.44;10326133;28;20060;-27
2023/01/14 15:56:44;;;;;;;3.33;1.15;;;;;;;17.13;51.55;96259.78;10326251;28;20057;-27
2023/01/14 16:01:51;;;;;;;6.88;1.30;;;;;;;17.13;52.62;96270.75;10323587;28;20038;-27
2023/01/14 16:07:14;;;;;;;4.90;1.40;;;;;;;17.15;52.42;96286.75;10318572;28;20501;-27
2023/01/14 16:12:15;;;;;;;7.38;1.15;;;;;;;17.14;53.35;96296.91;10325463;28;20422;-27
2023/01/14 16:17:19;;;;;;;1.65;1.10;;;;;;;17.18;53.91;96293.50;10324860;28;20038;-27
2023/01/14 16:22:19;;;;;;;2.85;1.40;;;;;;;17.16;55.63;96275.78;10325093;28;20037;-27
2023/01/14 16:27:23;;;;;;;2.83;1.03;;;;;;;17.12;55.35;96269.06;10324612;28;20406;-27
2023/01/14 16:32:23;;;;;;;3.60;1.10;;;;;;;17.12;55.57;96256.44;10325898;28;20439;-27
2023/01/14 16:37:24;;;;;;;5.90;1.10;;;;;;;17.13;54.75;96249.66;10318359;28;20038;-27
2023/01/14 16:42:24;;;;;;;5.82;1.65;;;;;;;17.14;55.17;96233.66;10423953;23;20089;-23
2023/01/14 16:47:24;;;;;;;2.93;1.60;;;;;;;17.17;55.16;96231.13;10352872;28;20060;-23
2023/01/14 16:52:25;;;;;;;4.57;1.40;;;;;;;17.15;55.44;96212.59;10366023;28;20026;-23
2023/01/14 16:57:25;;;;;;;5.87;2.00;;;;;;;17.18;55.73;96210.88;10355571;28;20042;-22
2023/01/14 17:02:25;;;;;;;7.33;2.50;;;;;;;17.15;56.66;96203.28;10359344;28;20038;-23
2023/01/14 17:07:26;;;;;;;8.33;2.33;;;;;;;17.16;57.17;96186.44;10362747;28;20026;-23
2023/01/14 17:12:38;;;;;;;5.83;2.37;;;;;;;17.17;56.80;96195.72;10361546;28;20041;-22
2023/01/14 17:17:40;;;;;;;9.40;3.78;;;;;;;17.17;57.60;96172.94;10351089;28;20700;-22
2023/01/14 17:22:41;;;;;;;5.45;2.55;;;;;;;17.10;58.33;96172.13;10370658;28;20033;-23
2023/01/14 17:27:42;;;;;;;7.32;2.70;;;;;;;17.14;58.12;96156.09;10367218;28;20105;-23
2023/01/14 17:32:45;;;;;;;6.28;2.72;;;;;;;17.20;56.78;96143.44;10367040;28;20116;-22
2023/01/14 17:37:46;;;;;;;8.25;3.42;;;;;;;17.22;57.01;96151.84;10360110;28;20061;-22
2023/01/14 17:42:54;;;;;;;10.20;3.10;;;;;;;17.24;56.79;96141.72;10373707;28;20497;-23
2023/01/14 17:47:54;;;;;;;15.00;3.78;;;;;;;17.23;56.78;96129.94;10362379;28;20030;-23
2023/01/14 17:52:57;;;;;;;7.90;2.67;;;;;;;17.23;57.25;96135.00;10360312;28;20038;-23
2023/01/14 17:57:58;;;;;;;7.63;2.60;;;;;;;17.23;57.17;96130.75;10354685;28;20296;-23
2023/01/14 18:02:58;;;;;;;9.87;2.93;;;;;;;17.23;56.70;96115.56;10364917;28;20045;-22
2023/01/14 18:07:59;;;;;;;6.43;2.57;;;;;;;17.25;57.23;96108.00;10369789;28;20292;-22
2023/01/14 18:13:00;;;;;;;7.40;2.53;;;;;;;17.25;56.99;96118.09;10367630;28;20309;-23
2023/01/14 18:18:00;;;;;;;9.95;2.78;;;;;;;17.22;57.94;96103.78;10371357;28;20429;-23
2023/01/14 18:23:01;;;;;;;12.40;4.70;;;;;;;17.18;58.31;96096.22;10369861;28;20049;-23
2023/01/14 18:28:02;;;;;;;8.13;2.92;;;;;;;17.17;57.43;96086.94;10366461;28;20099;-22
2023/01/14 18:33:03;;;;;;;7.72;2.58;;;;;;;17.20;57.08;96084.38;10382678;28;20110;-23
2023/01/14 18:38:05;;;;;;;4.40;2.63;;;;;;;17.20;57.64;96089.44;10386535;28;20042;-23
2023/01/14 18:43:06;;;;;;;8.38;2.33;;;;;;;17.18;57.86;96068.38;10368809;28;20046;-22
2023/01/14 18:48:07;;;;;;;10.85;2.80;;;;;;;17.19;57.93;96070.06;10369820;28;20486;-22
2023/01/14 18:53:08;;;;;;;5.50;2.33;;;;;;;17.18;57.46;96070.91;10365087;28;20052;-23
2023/01/14 18:58:09;;;;;;;3.08;2.13;;;;;;;17.17;57.48;96064.19;10362302;28;20507;-23
2023/01/14 19:03:09;;;;;;;6.90;2.20;;;;;;;17.17;57.98;96072.59;10369531;28;20111;-22
2023/01/14 19:08:09;;;;;;;4.03;1.97;;;;;;;17.16;57.81;96077.69;10368585;28;20030;-23
2023/01/14 19:13:10;;;;;;;7.33;2.53;;;;;;;17.16;58.02;96063.31;10361507;28;20301;-23
2023/01/14 19:18:10;;;;;;;6.32;2.90;;;;;;;17.16;58.05;96062.50;10369589;28;20297;-23
2023/01/14 19:23:11;;;;;;;4.73;2.53;;;;;;;17.14;58.65;96049.03;10361763;28;20052;-23
2023/01/14 19:28:11;;;;;;;4.77;2.40;;;;;;;17.13;58.04;96044.81;10346951;28;20167;-22
2023/01/14 19:33:11;;;;;;;3.57;2.27;;;;;;;17.17;57.84;96024.53;10368555;28;20508;-23
2023/01/14 19:38:14;;;;;;;5.40;2.37;;;;;;;17.15;58.02;96023.72;10361082;28;20026;-23
2023/01/14 19:43:15;;;;;;;3.92;2.22;;;;;;;17.15;58.03;96006.00;10363369;28;20064;-23
2023/01/14 19:48:15;;;;;;;4.20;1.80;;;;;;;17.15;57.87;96016.13;10367230;28;20033;-23
2023/01/14 19:53:15;;;;;;;2.70;1.80;;;;;;;17.16;57.86;96001.81;10359682;28;20029;-23
2023/01/14 19:58:16;;;;;;;3.53;1.97;;;;;;;17.14;58.21;95998.47;10365929;28;20029;-22
2023/01/14 20:03:16;;;;;;;2.63;1.60;;;;;;;17.10;58.59;95977.41;10366202;28;20041;-22
2023/01/14 20:08:17;;;;;;;5.07;2.30;;;;;;;17.12;58.24;95965.56;10366223;28;20525;-23
2023/01/14 20:13:17;;;;;;;5.47;2.07;;;;;;;17.10;58.65;95936.09;10365613;28;20046;-23
2023/01/14 20:18:20;;;;;;;5.28;2.20;;;;;;;17.13;58.39;95953.75;10360603;28;20073;-23
2023/01/14 20:23:20;;;;;;;4.10;2.20;;;;;;;17.08;58.76;95947.91;10359679;28;20057;-22
2023/01/14 20:28:21;;;;;;;5.37;2.20;;;;;;;17.07;58.81;95948.75;10351110;28;20037;-22
2023/01/14 20:33:22;;;;;;;6.35;1.92;;;;;;;17.09;57.89;95935.22;10366447;28;20076;-22
2023/01/14 20:38:23;;;;;;;5.53;2.60;;;;;;;17.10;58.39;95931.03;10360495;28;20026;-22
2023/01/14 20:43:28;;;;;;;7.95;2.10;;;;;;;17.10;58.45;95936.09;10359181;28;20395;-23
2023/01/14 20:48:28;;;;;;;2.53;1.80;;;;;;;17.12;58.13;95939.44;10365540;28;20502;-22
2023/01/14 20:53:29;;;;;;;3.05;1.90;;;;;;;17.12;58.33;95944.50;10365507;28;20037;-23
2023/01/14 21:03:30;;;;;;;5.53;1.90;;;;;;;17.13;57.84;95921.72;10363833;28;20391;-23
2023/01/14 21:08:32;;;;;;;4.78;2.08;;;;;;;17.17;57.82;95936.00;10361905;28;20045;-22
2023/01/14 21:24:10;;;;;;;5.07;1.73;;;;;;;17.21;57.69;95898.91;10351973;28;20092;-22
2023/01/14 21:29:10;;;;;;;5.73;2.17;;;;;;;17.17;58.04;95882.09;10357988;28;20409;-23
2023/01/14 21:34:11;;;;;;;2.30;1.70;;;;;;;17.20;57.73;95884.56;10377773;28;20057;-22
2023/01/14 21:39:11;;;;;;;2.63;1.85;;;;;;;17.21;57.67;95883.72;10378637;28;20452;-22
2023/01/14 21:44:11;;;;;;;2.77;1.20;;;;;;;17.22;57.60;95872.75;10370637;28;20030;-22
2023/01/14 21:49:12;;;;;;;2.90;1.30;;;;;;;17.23;57.65;95887.09;10372234;28;20041;-22
2023/01/14 21:54:12;;;;;;;2.65;1.55;;;;;;;17.18;57.88;95861.00;10362561;28;20293;-22
2023/01/14 21:59:15;;;;;;;3.00;1.47;;;;;;;17.18;58.86;95869.44;10382078;28;20037;-22
2023/01/14 22:04:15;;;;;;;3.58;1.30;;;;;;;17.16;59.01;95845.81;10373713;28;20118;-22
2023/01/14 22:09:17;;;;;;;2.57;1.30;;;;;;;17.15;59.05;95854.25;10365974;28;20094;-23
2023/01/14 22:14:17;;;;;;;3.95;1.30;;;;;;;17.17;58.68;95846.69;10365741;28;20124;-22
2023/01/14 22:19:17;;;;;;;3.63;1.60;;;;;;;17.15;58.79;95838.28;10375108;28;20491;-22
2023/01/14 22:24:18;;;;;;;5.90;1.33;;;;;;;17.14;59.20;95822.25;10375417;28;20425;-22
2023/01/14 22:29:18;;;;;;;7.23;2.90;;;;;;;17.09;59.95;95813.03;10351802;28;20056;-24
2023/01/14 22:34:18;;;;;;;4.18;1.85;;;;;;;17.10;59.64;95814.69;10372463;28;20520;-22
2023/01/14 22:39:19;;;;;;;4.70;1.43;;;;;;;17.12;59.22;95793.59;10355291;28;20037;-23
2023/01/14 22:44:19;;;;;;;2.80;1.50;;;;;;;17.12;58.94;95800.34;10383178;28;20304;-23
2023/01/14 22:49:20;;;;;;;3.17;1.50;;;;;;;17.12;59.06;95768.31;10365327;28;20034;-23
2023/01/14 22:54:21;;;;;;;3.87;1.03;;;;;;;17.13;59.12;95774.19;10376954;28;20810;-23
2023/01/14 22:59:21;;;;;;;3.53;1.38;;;;;;;17.13;58.96;95769.13;10366513;28;20319;-23
2023/01/14 23:04:21;;;;;;;5.83;3.13;;;;;;;17.12;59.66;95743.03;10368333;28;20523;-24
2023/01/14 23:09:22;;;;;;;4.83;1.40;;;;;;;17.12;58.97;95732.06;10367678;28;20285;-23
2023/01/14 23:14:22;;;;;;;4.17;1.30;;;;;;;17.12;59.01;95744.72;10361912;28;20034;-23
2023/01/14 23:19:25;;;;;;;3.87;1.50;;;;;;;17.10;59.34;95728.72;10365944;28;21137;-23
2023/01/14 23:24:27;;;;;;;2.55;1.63;;;;;;;17.10;58.93;95718.59;10368315;28;20315;-23
2023/01/14 23:29:27;;;;;;;4.40;1.95;;;;;;;17.10;59.20;95698.38;10361074;28;20409;-23
2023/01/14 23:34:28;;;;;;;4.57;1.90;;;;;;;17.12;59.84;95711.84;10369158;28;20030;-23
2023/01/14 23:39:30;;;;;;;8.93;2.10;;;;;;;17.09;59.92;95689.13;10361581;28;20296;-23
2023/01/14 23:44:31;;;;;;;7.18;1.60;;;;;;;17.10;59.52;95688.25;10364602;28;20292;-23
2023/01/14 23:49:31;;;;;;;4.10;1.67;;;;;;;17.11;59.33;95679.81;10367955;28;20502;-23
2023/01/14 23:54:32;;;;;;;2.80;1.73;;;;;;;17.11;59.05;95679.81;10362002;28;20034;-23
2023/01/14 23:59:38;;;;;;;4.33;1.10;;;;;;;17.12;59.38;95686.53;10366780;28;20042;-23
